Terminal Aerodrome Forecast
Issued by NWS Springfield, MO

Home | Current Version | Previous Version | Text Only | Print | Product List | Glossary Off
Versions: 1 2 3 4 5 6 7 8 9 10 11 12 13 14 15 16 17 18 19 20 21 22 23 24 25 26 27 28 29 30 31

000
FTUS43 KSGF 241120
TAFSGF
TAF
KSGF 241120Z 2412/2512 14009KT P6SM -RA VCSH OVC018
     FM241400 15008KT P6SM VCSH OVC005
     FM241700 16007KT P6SM -SHRA OVC008
     FM241900 16008KT 2SM SHRA VCTS OVC010CB
     FM242300 27013G25KT P6SM OVC008
     FM250400 28012G21KT P6SM BKN100=

USA.gov is the U.S. government's official web portal to all federal, state and local government web resources and services.